sensor_id;sensor_type;location;lat;lon;timestamp;P1;durP1;ratioP1;P2;durP2;ratioP2
3747;SDS011;1889;50.058;8.688;2023-02-01T00:02:01;2.77;;;2.02;;
3747;SDS011;1889;50.058;8.688;2023-02-01T00:04:30;2.27;;;1.80;;
3747;SDS011;1889;50.058;8.688;2023-02-01T00:07:00;2.20;;;2.00;;
3747;SDS011;1889;50.058;8.688;2023-02-01T00:09:29;2.27;;;2.08;;
3747;SDS011;1889;50.058;8.688;2023-02-01T00:11:58;2.15;;;1.95;;
3747;SDS011;1889;50.058;8.688;2023-02-01T00:14:29;2.10;;;1.90;;
3747;SDS011;1889;50.058;8.688;2023-02-01T00:17:00;4.33;;;2.12;;
3747;SDS011;1889;50.058;8.688;2023-02-01T00:19:29;2.50;;;2.22;;
3747;SDS011;1889;50.058;8.688;2023-02-01T00:21:59;2.87;;;2.00;;
3747;SDS011;1889;50.058;8.688;2023-02-01T00:24:28;2.20;;;1.98;;
3747;SDS011;1889;50.058;8.688;2023-02-01T00:26:58;3.42;;;2.40;;
3747;SDS011;1889;50.058;8.688;2023-02-01T00:29:27;2.55;;;1.80;;
3747;SDS011;1889;50.058;8.688;2023-02-01T00:31:56;2.37;;;2.17;;
3747;SDS011;1889;50.058;8.688;2023-02-01T00:34:25;2.42;;;2.10;;
3747;SDS011;1889;50.058;8.688;2023-02-01T00:36:55;2.87;;;2.12;;
3747;SDS011;1889;50.058;8.688;2023-02-01T00:39:24;2.80;;;2.27;;
3747;SDS011;1889;50.058;8.688;2023-02-01T00:41:53;3.15;;;2.02;;
3747;SDS011;1889;50.058;8.688;2023-02-01T00:44:23;2.22;;;2.00;;
3747;SDS011;1889;50.058;8.688;2023-02-01T00:46:52;4.35;;;2.33;;
3747;SDS011;1889;50.058;8.688;2023-02-01T00:49:21;3.12;;;1.95;;
3747;SDS011;1889;50.058;8.688;2023-02-01T00:51:51;4.15;;;2.45;;
3747;SDS011;1889;50.058;8.688;2023-02-01T00:54:20;3.15;;;2.05;;
3747;SDS011;1889;50.058;8.688;2023-02-01T00:56:50;2.80;;;2.10;;
3747;SDS011;1889;50.058;8.688;2023-02-01T00:59:19;2.42;;;2.20;;
3747;SDS011;1889;50.058;8.688;2023-02-01T01:01:48;2.20;;;2.00;;
3747;SDS011;1889;50.058;8.688;2023-02-01T01:04:18;2.75;;;2.27;;
3747;SDS011;1889;50.058;8.688;2023-02-01T01:06:47;2.98;;;2.00;;
3747;SDS011;1889;50.058;8.688;2023-02-01T01:09:16;4.17;;;2.80;;
3747;SDS011;1889;50.058;8.688;2023-02-01T01:11:45;3.33;;;2.58;;
3747;SDS011;1889;50.058;8.688;2023-02-01T01:14:15;2.70;;;2.50;;
3747;SDS011;1889;50.058;8.688;2023-02-01T01:16:45;3.37;;;2.90;;
3747;SDS011;1889;50.058;8.688;2023-02-01T01:19:14;3.00;;;2.60;;
3747;SDS011;1889;50.058;8.688;2023-02-01T01:21:43;2.62;;;2.25;;
3747;SDS011;1889;50.058;8.688;2023-02-01T01:24:12;4.22;;;2.45;;
3747;SDS011;1889;50.058;8.688;2023-02-01T01:26:42;4.47;;;2.42;;
3747;SDS011;1889;50.058;8.688;2023-02-01T01:29:11;3.35;;;2.30;;
3747;SDS011;1889;50.058;8.688;2023-02-01T01:31:40;3.45;;;2.50;;
3747;SDS011;1889;50.058;8.688;2023-02-01T01:34:10;3.60;;;2.50;;
3747;SDS011;1889;50.058;8.688;2023-02-01T01:36:39;3.22;;;2.83;;
3747;SDS011;1889;50.058;8.688;2023-02-01T01:39:08;2.58;;;2.37;;
3747;SDS011;1889;50.058;8.688;2023-02-01T01:41:38;4.70;;;2.85;;
3747;SDS011;1889;50.058;8.688;2023-02-01T01:44:53;2.70;;;2.50;;
3747;SDS011;1889;50.058;8.688;2023-02-01T01:46:56;2.90;;;2.62;;
3747;SDS011;1889;50.058;8.688;2023-02-01T01:49:25;4.42;;;3.05;;
3747;SDS011;1889;50.058;8.688;2023-02-01T01:51:58;3.92;;;2.80;;
3747;SDS011;1889;50.058;8.688;2023-02-01T01:54:33;5.70;;;3.02;;
3747;SDS011;1889;50.058;8.688;2023-02-01T01:57:04;3.10;;;2.65;;
3747;SDS011;1889;50.058;8.688;2023-02-01T01:59:34;3.50;;;2.90;;
3747;SDS011;1889;50.058;8.688;2023-02-01T02:02:06;3.33;;;3.02;;
3747;SDS011;1889;50.058;8.688;2023-02-01T02:04:35;3.00;;;2.70;;
3747;SDS011;1889;50.058;8.688;2023-02-01T02:07:11;6.20;;;3.05;;
3747;SDS011;1889;50.058;8.688;2023-02-01T02:09:39;3.83;;;3.02;;
3747;SDS011;1889;50.058;8.688;2023-02-01T02:12:10;5.10;;;3.33;;
3747;SDS011;1889;50.058;8.688;2023-02-01T02:14:39;2.92;;;2.67;;
3747;SDS011;1889;50.058;8.688;2023-02-01T02:17:30;2.87;;;2.50;;
3747;SDS011;1889;50.058;8.688;2023-02-01T02:20:24;3.58;;;3.27;;
3747;SDS011;1889;50.058;8.688;2023-02-01T02:23:53;3.27;;;2.98;;
3747;SDS011;1889;50.058;8.688;2023-02-01T02:26:05;3.12;;;2.83;;
3747;SDS011;1889;50.058;8.688;2023-02-01T02:31:54;4.47;;;3.17;;
3747;SDS011;1889;50.058;8.688;2023-02-01T02:34:28;3.83;;;3.50;;
3747;SDS011;1889;50.058;8.688;2023-02-01T02:37:22;6.58;;;3.47;;
3747;SDS011;1889;50.058;8.688;2023-02-01T02:39:59;4.22;;;3.22;;
3747;SDS011;1889;50.058;8.688;2023-02-01T02:45:42;4.58;;;3.05;;
3747;SDS011;1889;50.058;8.688;2023-02-01T02:48:34;4.42;;;3.12;;
3747;SDS011;1889;50.058;8.688;2023-02-01T02:51:13;4.55;;;3.55;;
3747;SDS011;1889;50.058;8.688;2023-02-01T02:54:21;4.17;;;3.47;;
3747;SDS011;1889;50.058;8.688;2023-02-01T02:57:10;6.45;;;3.90;;
3747;SDS011;1889;50.058;8.688;2023-02-01T03:00:00;4.65;;;3.47;;
3747;SDS011;1889;50.058;8.688;2023-02-01T03:02:47;4.47;;;3.47;;
3747;SDS011;1889;50.058;8.688;2023-02-01T03:05:35;4.03;;;3.47;;
3747;SDS011;1889;50.058;8.688;2023-02-01T03:08:11;3.72;;;3.10;;
3747;SDS011;1889;50.058;8.688;2023-02-01T03:11:00;4.00;;;3.33;;
3747;SDS011;1889;50.058;8.688;2023-02-01T03:13:45;5.28;;;3.25;;
3747;SDS011;1889;50.058;8.688;2023-02-01T03:16:26;3.72;;;3.20;;
3747;SDS011;1889;50.058;8.688;2023-02-01T03:18:59;5.60;;;3.50;;
3747;SDS011;1889;50.058;8.688;2023-02-01T03:21:37;3.98;;;2.80;;
3747;SDS011;1889;50.058;8.688;2023-02-01T03:24:12;3.30;;;2.22;;
3747;SDS011;1889;50.058;8.688;2023-02-01T03:26:51;4.95;;;3.20;;
3747;SDS011;1889;50.058;8.688;2023-02-01T03:29:18;2.92;;;2.45;;
3747;SDS011;1889;50.058;8.688;2023-02-01T03:31:52;2.90;;;2.70;;
3747;SDS011;1889;50.058;8.688;2023-02-01T03:34:22;4.85;;;2.35;;
3747;SDS011;1889;50.058;8.688;2023-02-01T03:36:52;3.27;;;2.55;;
3747;SDS011;1889;50.058;8.688;2023-02-01T03:39:31;2.52;;;2.10;;
3747;SDS011;1889;50.058;8.688;2023-02-01T03:42:05;1.82;;;1.70;;
3747;SDS011;1889;50.058;8.688;2023-02-01T03:44:50;3.55;;;2.35;;
3747;SDS011;1889;50.058;8.688;2023-02-01T03:47:27;2.42;;;2.00;;
3747;SDS011;1889;50.058;8.688;2023-02-01T03:49:57;2.52;;;2.33;;
3747;SDS011;1889;50.058;8.688;2023-02-01T03:55:21;4.00;;;2.55;;
3747;SDS011;1889;50.058;8.688;2023-02-01T03:58:01;2.98;;;2.27;;
3747;SDS011;1889;50.058;8.688;2023-02-01T04:00:33;3.87;;;2.75;;
3747;SDS011;1889;50.058;8.688;2023-02-01T04:02:58;3.75;;;2.92;;
3747;SDS011;1889;50.058;8.688;2023-02-01T04:05:27;3.15;;;2.77;;
3747;SDS011;1889;50.058;8.688;2023-02-01T04:07:57;3.62;;;2.60;;
3747;SDS011;1889;50.058;8.688;2023-02-01T04:10:27;4.80;;;2.92;;
3747;SDS011;1889;50.058;8.688;2023-02-01T04:12:57;3.67;;;3.08;;
3747;SDS011;1889;50.058;8.688;2023-02-01T04:15:26;4.47;;;2.98;;
3747;SDS011;1889;50.058;8.688;2023-02-01T04:17:55;3.08;;;2.47;;
3747;SDS011;1889;50.058;8.688;2023-02-01T04:20:25;3.42;;;3.00;;
3747;SDS011;1889;50.058;8.688;2023-02-01T04:22:54;5.03;;;2.83;;
3747;SDS011;1889;50.058;8.688;2023-02-01T04:25:23;5.15;;;2.80;;
3747;SDS011;1889;50.058;8.688;2023-02-01T04:27:53;5.22;;;3.00;;
3747;SDS011;1889;50.058;8.688;2023-02-01T04:30:22;4.28;;;3.27;;
3747;SDS011;1889;50.058;8.688;2023-02-01T04:32:52;4.00;;;3.70;;
3747;SDS011;1889;50.058;8.688;2023-02-01T04:35:21;5.28;;;3.35;;
3747;SDS011;1889;50.058;8.688;2023-02-01T04:37:50;4.53;;;3.40;;
3747;SDS011;1889;50.058;8.688;2023-02-01T04:40:20;3.50;;;3.17;;
3747;SDS011;1889;50.058;8.688;2023-02-01T04:42:49;5.97;;;3.47;;
3747;SDS011;1889;50.058;8.688;2023-02-01T04:45:18;4.83;;;3.42;;
3747;SDS011;1889;50.058;8.688;2023-02-01T04:47:47;8.03;;;3.62;;
3747;SDS011;1889;50.058;8.688;2023-02-01T04:50:17;4.85;;;3.45;;
3747;SDS011;1889;50.058;8.688;2023-02-01T04:52:47;4.30;;;3.12;;
3747;SDS011;1889;50.058;8.688;2023-02-01T04:55:17;4.95;;;3.70;;
3747;SDS011;1889;50.058;8.688;2023-02-01T04:57:46;4.60;;;3.50;;
3747;SDS011;1889;50.058;8.688;2023-02-01T05:00:15;6.30;;;3.40;;
3747;SDS011;1889;50.058;8.688;2023-02-01T05:02:45;4.85;;;3.40;;
3747;SDS011;1889;50.058;8.688;2023-02-01T05:05:14;3.33;;;2.92;;
3747;SDS011;1889;50.058;8.688;2023-02-01T05:07:45;5.03;;;3.30;;
3747;SDS011;1889;50.058;8.688;2023-02-01T05:10:14;8.58;;;3.25;;
3747;SDS011;1889;50.058;8.688;2023-02-01T05:12:44;4.17;;;2.67;;
3747;SDS011;1889;50.058;8.688;2023-02-01T05:15:31;4.25;;;2.72;;
3747;SDS011;1889;50.058;8.688;2023-02-01T05:18:01;5.03;;;2.95;;
3747;SDS011;1889;50.058;8.688;2023-02-01T05:20:30;4.83;;;2.87;;
3747;SDS011;1889;50.058;8.688;2023-02-01T05:23:00;3.92;;;2.80;;
3747;SDS011;1889;50.058;8.688;2023-02-01T05:25:29;5.40;;;2.83;;
3747;SDS011;1889;50.058;8.688;2023-02-01T05:27:58;3.70;;;2.87;;
3747;SDS011;1889;50.058;8.688;2023-02-01T05:30:28;5.40;;;2.60;;
3747;SDS011;1889;50.058;8.688;2023-02-01T05:32:57;4.35;;;2.42;;
3747;SDS011;1889;50.058;8.688;2023-02-01T05:35:26;4.35;;;2.87;;
3747;SDS011;1889;50.058;8.688;2023-02-01T05:37:56;7.05;;;3.33;;
3747;SDS011;1889;50.058;8.688;2023-02-01T05:40:25;5.55;;;2.70;;
3747;SDS011;1889;50.058;8.688;2023-02-01T05:42:54;3.17;;;2.70;;
3747;SDS011;1889;50.058;8.688;2023-02-01T05:45:24;5.20;;;2.40;;
3747;SDS011;1889;50.058;8.688;2023-02-01T05:47:53;3.42;;;2.67;;
3747;SDS011;1889;50.058;8.688;2023-02-01T05:50:22;4.12;;;2.33;;
3747;SDS011;1889;50.058;8.688;2023-02-01T05:52:51;2.77;;;2.45;;
3747;SDS011;1889;50.058;8.688;2023-02-01T05:55:21;2.15;;;1.90;;
3747;SDS011;1889;50.058;8.688;2023-02-01T05:57:50;2.58;;;2.20;;
3747;SDS011;1889;50.058;8.688;2023-02-01T06:00:19;3.15;;;1.92;;
3747;SDS011;1889;50.058;8.688;2023-02-01T06:02:49;4.97;;;1.82;;
3747;SDS011;1889;50.058;8.688;2023-02-01T06:05:19;5.00;;;2.40;;
3747;SDS011;1889;50.058;8.688;2023-02-01T06:07:48;4.05;;;2.35;;
3747;SDS011;1889;50.058;8.688;2023-02-01T06:10:18;5.20;;;2.25;;
3747;SDS011;1889;50.058;8.688;2023-02-01T06:12:47;4.03;;;2.15;;
3747;SDS011;1889;50.058;8.688;2023-02-01T06:15:17;4.55;;;2.20;;
3747;SDS011;1889;50.058;8.688;2023-02-01T06:17:45;3.62;;;1.82;;
3747;SDS011;1889;50.058;8.688;2023-02-01T06:20:15;4.97;;;2.40;;
3747;SDS011;1889;50.058;8.688;2023-02-01T06:22:45;4.12;;;2.05;;
3747;SDS011;1889;50.058;8.688;2023-02-01T06:25:14;5.17;;;1.90;;
3747;SDS011;1889;50.058;8.688;2023-02-01T06:27:44;3.90;;;1.70;;
3747;SDS011;1889;50.058;8.688;2023-02-01T06:30:13;3.45;;;2.20;;
3747;SDS011;1889;50.058;8.688;2023-02-01T06:32:43;5.00;;;2.77;;
3747;SDS011;1889;50.058;8.688;2023-02-01T06:35:12;3.17;;;1.50;;
3747;SDS011;1889;50.058;8.688;2023-02-01T06:37:43;3.72;;;1.80;;
3747;SDS011;1889;50.058;8.688;2023-02-01T06:40:12;3.92;;;2.15;;
3747;SDS011;1889;50.058;8.688;2023-02-01T06:42:42;3.40;;;1.70;;
3747;SDS011;1889;50.058;8.688;2023-02-01T06:45:11;2.72;;;2.00;;
3747;SDS011;1889;50.058;8.688;2023-02-01T06:47:40;2.72;;;1.55;;
3747;SDS011;1889;50.058;8.688;2023-02-01T06:50:10;2.52;;;1.50;;
3747;SDS011;1889;50.058;8.688;2023-02-01T06:52:39;6.30;;;1.70;;
3747;SDS011;1889;50.058;8.688;2023-02-01T06:55:08;3.92;;;1.92;;
3747;SDS011;1889;50.058;8.688;2023-02-01T06:57:38;6.08;;;1.90;;
3747;SDS011;1889;50.058;8.688;2023-02-01T07:00:07;4.08;;;2.33;;
3747;SDS011;1889;50.058;8.688;2023-02-01T07:02:37;4.40;;;2.08;;
3747;SDS011;1889;50.058;8.688;2023-02-01T07:05:07;5.10;;;1.87;;
3747;SDS011;1889;50.058;8.688;2023-02-01T07:07:36;4.28;;;1.80;;
3747;SDS011;1889;50.058;8.688;2023-02-01T07:10:06;4.67;;;1.60;;
3747;SDS011;1889;50.058;8.688;2023-02-01T07:12:35;4.83;;;1.62;;
3747;SDS011;1889;50.058;8.688;2023-02-01T07:15:05;3.25;;;2.10;;
3747;SDS011;1889;50.058;8.688;2023-02-01T07:17:35;3.80;;;2.05;;
3747;SDS011;1889;50.058;8.688;2023-02-01T07:20:04;5.65;;;2.00;;
3747;SDS011;1889;50.058;8.688;2023-02-01T07:22:34;5.65;;;2.50;;
3747;SDS011;1889;50.058;8.688;2023-02-01T07:25:04;6.28;;;1.87;;
3747;SDS011;1889;50.058;8.688;2023-02-01T07:27:34;4.47;;;1.82;;
3747;SDS011;1889;50.058;8.688;2023-02-01T07:30:04;4.30;;;1.90;;
3747;SDS011;1889;50.058;8.688;2023-02-01T07:32:34;4.03;;;1.70;;
3747;SDS011;1889;50.058;8.688;2023-02-01T07:35:03;5.78;;;2.17;;
3747;SDS011;1889;50.058;8.688;2023-02-01T07:37:33;6.33;;;2.22;;
3747;SDS011;1889;50.058;8.688;2023-02-01T07:40:03;9.88;;;2.40;;
3747;SDS011;1889;50.058;8.688;2023-02-01T07:42:34;5.15;;;2.12;;
3747;SDS011;1889;50.058;8.688;2023-02-01T07:45:04;7.37;;;1.80;;
3747;SDS011;1889;50.058;8.688;2023-02-01T07:47:33;5.25;;;2.15;;
3747;SDS011;1889;50.058;8.688;2023-02-01T07:50:03;4.97;;;2.20;;
3747;SDS011;1889;50.058;8.688;2023-02-01T07:52:32;2.92;;;1.85;;
3747;SDS011;1889;50.058;8.688;2023-02-01T07:55:02;9.18;;;2.35;;
3747;SDS011;1889;50.058;8.688;2023-02-01T07:57:31;4.80;;;1.72;;
3747;SDS011;1889;50.058;8.688;2023-02-01T08:00:00;5.40;;;2.45;;
3747;SDS011;1889;50.058;8.688;2023-02-01T08:02:48;5.95;;;1.77;;
3747;SDS011;1889;50.058;8.688;2023-02-01T08:05:17;3.77;;;1.72;;
3747;SDS011;1889;50.058;8.688;2023-02-01T08:07:49;5.17;;;2.00;;
3747;SDS011;1889;50.058;8.688;2023-02-01T08:10:19;5.92;;;2.10;;
3747;SDS011;1889;50.058;8.688;2023-02-01T08:12:48;4.05;;;2.05;;
3747;SDS011;1889;50.058;8.688;2023-02-01T08:15:19;5.85;;;1.95;;
3747;SDS011;1889;50.058;8.688;2023-02-01T08:17:48;3.60;;;1.40;;
3747;SDS011;1889;50.058;8.688;2023-02-01T08:20:19;4.60;;;2.08;;
3747;SDS011;1889;50.058;8.688;2023-02-01T08:22:50;8.35;;;2.10;;
3747;SDS011;1889;50.058;8.688;2023-02-01T08:25:19;6.20;;;2.10;;
3747;SDS011;1889;50.058;8.688;2023-02-01T08:27:49;7.37;;;2.27;;
3747;SDS011;1889;50.058;8.688;2023-02-01T08:30:18;4.08;;;2.05;;
3747;SDS011;1889;50.058;8.688;2023-02-01T08:32:49;6.28;;;2.33;;
3747;SDS011;1889;50.058;8.688;2023-02-01T08:35:18;3.98;;;2.27;;
3747;SDS011;1889;50.058;8.688;2023-02-01T08:37:49;3.67;;;2.20;;
3747;SDS011;1889;50.058;8.688;2023-02-01T08:40:18;4.53;;;1.98;;
3747;SDS011;1889;50.058;8.688;2023-02-01T08:42:49;6.72;;;2.47;;
3747;SDS011;1889;50.058;8.688;2023-02-01T08:45:22;7.22;;;2.40;;
3747;SDS011;1889;50.058;8.688;2023-02-01T08:47:53;6.05;;;2.50;;
3747;SDS011;1889;50.058;8.688;2023-02-01T08:50:23;4.97;;;2.17;;
3747;SDS011;1889;50.058;8.688;2023-02-01T08:52:53;6.37;;;2.45;;
3747;SDS011;1889;50.058;8.688;2023-02-01T08:55:22;5.17;;;2.50;;
3747;SDS011;1889;50.058;8.688;2023-02-01T08:57:51;5.10;;;2.10;;
3747;SDS011;1889;50.058;8.688;2023-02-01T09:00:21;6.45;;;2.37;;
3747;SDS011;1889;50.058;8.688;2023-02-01T09:02:50;8.28;;;3.77;;
3747;SDS011;1889;50.058;8.688;2023-02-01T09:05:20;6.42;;;2.90;;
3747;SDS011;1889;50.058;8.688;2023-02-01T09:07:50;5.75;;;2.80;;
3747;SDS011;1889;50.058;8.688;2023-02-01T09:10:19;6.78;;;2.42;;
3747;SDS011;1889;50.058;8.688;2023-02-01T09:12:49;5.95;;;3.10;;
3747;SDS011;1889;50.058;8.688;2023-02-01T09:15:19;5.90;;;2.17;;
3747;SDS011;1889;50.058;8.688;2023-02-01T09:17:48;9.88;;;2.70;;
3747;SDS011;1889;50.058;8.688;2023-02-01T09:20:17;4.47;;;2.33;;
3747;SDS011;1889;50.058;8.688;2023-02-01T09:22:48;6.95;;;2.33;;
3747;SDS011;1889;50.058;8.688;2023-02-01T09:25:19;5.92;;;2.17;;
3747;SDS011;1889;50.058;8.688;2023-02-01T09:27:49;9.98;;;2.47;;
3747;SDS011;1889;50.058;8.688;2023-02-01T09:30:18;7.42;;;2.22;;
3747;SDS011;1889;50.058;8.688;2023-02-01T09:32:47;7.30;;;2.45;;
3747;SDS011;1889;50.058;8.688;2023-02-01T09:35:17;6.70;;;1.98;;
3747;SDS011;1889;50.058;8.688;2023-02-01T09:37:47;7.22;;;2.33;;
3747;SDS011;1889;50.058;8.688;2023-02-01T09:40:16;5.37;;;2.35;;
3747;SDS011;1889;50.058;8.688;2023-02-01T09:48:10;7.97;;;2.22;;
3747;SDS011;1889;50.058;8.688;2023-02-01T09:50:48;5.75;;;2.27;;
3747;SDS011;1889;50.058;8.688;2023-02-01T09:53:21;6.50;;;2.30;;
3747;SDS011;1889;50.058;8.688;2023-02-01T09:55:51;9.43;;;2.55;;
3747;SDS011;1889;50.058;8.688;2023-02-01T09:58:44;5.85;;;2.05;;
3747;SDS011;1889;50.058;8.688;2023-02-01T10:00:59;7.10;;;2.02;;
3747;SDS011;1889;50.058;8.688;2023-02-01T10:03:31;6.60;;;2.47;;
3747;SDS011;1889;50.058;8.688;2023-02-01T10:06:13;5.58;;;2.05;;
3747;SDS011;1889;50.058;8.688;2023-02-01T10:08:58;6.05;;;1.98;;
3747;SDS011;1889;50.058;8.688;2023-02-01T10:11:55;4.75;;;1.87;;
3747;SDS011;1889;50.058;8.688;2023-02-01T10:17:12;6.20;;;2.08;;
3747;SDS011;1889;50.058;8.688;2023-02-01T10:25:44;5.60;;;1.62;;
3747;SDS011;1889;50.058;8.688;2023-02-01T10:28:15;8.33;;;2.08;;
3747;SDS011;1889;50.058;8.688;2023-02-01T10:30:46;6.00;;;1.90;;
3747;SDS011;1889;50.058;8.688;2023-02-01T10:33:23;6.00;;;2.37;;
3747;SDS011;1889;50.058;8.688;2023-02-01T10:38:36;7.10;;;1.90;;
3747;SDS011;1889;50.058;8.688;2023-02-01T10:41:24;4.62;;;2.12;;
3747;SDS011;1889;50.058;8.688;2023-02-01T10:43:40;8.58;;;1.72;;
3747;SDS011;1889;50.058;8.688;2023-02-01T10:46:11;5.97;;;1.87;;
3747;SDS011;1889;50.058;8.688;2023-02-01T10:48:40;6.67;;;1.60;;
3747;SDS011;1889;50.058;8.688;2023-02-01T10:51:12;9.15;;;1.90;;
3747;SDS011;1889;50.058;8.688;2023-02-01T10:56:30;5.97;;;1.62;;
3747;SDS011;1889;50.058;8.688;2023-02-01T10:59:03;6.60;;;1.85;;
3747;SDS011;1889;50.058;8.688;2023-02-01T11:01:37;5.80;;;1.40;;
3747;SDS011;1889;50.058;8.688;2023-02-01T11:04:09;5.75;;;1.85;;
3747;SDS011;1889;50.058;8.688;2023-02-01T11:07:04;7.78;;;2.62;;
3747;SDS011;1889;50.058;8.688;2023-02-01T11:09:48;7.87;;;2.30;;
3747;SDS011;1889;50.058;8.688;2023-02-01T11:15:03;11.85;;;2.10;;
3747;SDS011;1889;50.058;8.688;2023-02-01T11:17:46;5.10;;;2.22;;
3747;SDS011;1889;50.058;8.688;2023-02-01T11:20:20;6.25;;;1.70;;
3747;SDS011;1889;50.058;8.688;2023-02-01T11:23:03;3.90;;;1.55;;
3747;SDS011;1889;50.058;8.688;2023-02-01T11:25:32;6.50;;;1.65;;
3747;SDS011;1889;50.058;8.688;2023-02-01T11:28:04;6.60;;;2.20;;
3747;SDS011;1889;50.058;8.688;2023-02-01T11:30:38;8.05;;;2.15;;
3747;SDS011;1889;50.058;8.688;2023-02-01T11:33:16;6.20;;;1.82;;
3747;SDS011;1889;50.058;8.688;2023-02-01T11:35:42;6.60;;;1.92;;
3747;SDS011;1889;50.058;8.688;2023-02-01T11:38:25;4.95;;;1.95;;
3747;SDS011;1889;50.058;8.688;2023-02-01T11:41:12;7.50;;;2.12;;
3747;SDS011;1889;50.058;8.688;2023-02-01T11:43:57;7.15;;;2.10;;
3747;SDS011;1889;50.058;8.688;2023-02-01T11:46:29;7.08;;;1.85;;
3747;SDS011;1889;50.058;8.688;2023-02-01T11:49:19;5.25;;;1.77;;
3747;SDS011;1889;50.058;8.688;2023-02-01T11:54:41;7.47;;;1.87;;
3747;SDS011;1889;50.058;8.688;2023-02-01T11:57:32;5.97;;;2.10;;
3747;SDS011;1889;50.058;8.688;2023-02-01T12:05:50;6.75;;;1.50;;
3747;SDS011;1889;50.058;8.688;2023-02-01T12:09:07;8.53;;;2.12;;
3747;SDS011;1889;50.058;8.688;2023-02-01T12:22:54;6.92;;;1.77;;
3747;SDS011;1889;50.058;8.688;2023-02-01T12:25:39;7.90;;;1.80;;
3747;SDS011;1889;50.058;8.688;2023-02-01T12:28:19;8.15;;;2.22;;
3747;SDS011;1889;50.058;8.688;2023-02-01T12:30:57;5.12;;;1.62;;
3747;SDS011;1889;50.058;8.688;2023-02-01T12:33:39;7.28;;;1.45;;
3747;SDS011;1889;50.058;8.688;2023-02-01T12:36:19;5.33;;;1.77;;
3747;SDS011;1889;50.058;8.688;2023-02-01T12:39:08;5.62;;;2.10;;
3747;SDS011;1889;50.058;8.688;2023-02-01T12:44:50;8.05;;;1.62;;
3747;SDS011;1889;50.058;8.688;2023-02-01T12:47:31;6.28;;;2.12;;
3747;SDS011;1889;50.058;8.688;2023-02-01T12:52:49;9.15;;;2.10;;
3747;SDS011;1889;50.058;8.688;2023-02-01T12:55:38;6.75;;;2.12;;
3747;SDS011;1889;50.058;8.688;2023-02-01T12:58:12;6.47;;;2.30;;
3747;SDS011;1889;50.058;8.688;2023-02-01T13:00:51;8.33;;;2.60;;
3747;SDS011;1889;50.058;8.688;2023-02-01T13:08:53;6.03;;;1.92;;
3747;SDS011;1889;50.058;8.688;2023-02-01T13:11:31;7.70;;;2.10;;
3747;SDS011;1889;50.058;8.688;2023-02-01T13:17:15;10.05;;;1.80;;
3747;SDS011;1889;50.058;8.688;2023-02-01T13:19:52;3.70;;;1.22;;
3747;SDS011;1889;50.058;8.688;2023-02-01T13:22:21;3.30;;;1.42;;
3747;SDS011;1889;50.058;8.688;2023-02-01T13:27:42;3.40;;;1.50;;
3747;SDS011;1889;50.058;8.688;2023-02-01T13:32:49;4.10;;;2.17;;
3747;SDS011;1889;50.058;8.688;2023-02-01T13:35:28;4.95;;;1.85;;
3747;SDS011;1889;50.058;8.688;2023-02-01T13:41:14;7.70;;;2.12;;
3747;SDS011;1889;50.058;8.688;2023-02-01T13:43:58;6.37;;;1.87;;
3747;SDS011;1889;50.058;8.688;2023-02-01T13:46:27;4.40;;;1.47;;
3747;SDS011;1889;50.058;8.688;2023-02-01T13:48:59;5.12;;;1.80;;
3747;SDS011;1889;50.058;8.688;2023-02-01T13:51:40;7.92;;;1.57;;
3747;SDS011;1889;50.058;8.688;2023-02-01T13:54:23;5.95;;;1.62;;
3747;SDS011;1889;50.058;8.688;2023-02-01T13:56:58;6.62;;;1.72;;
3747;SDS011;1889;50.058;8.688;2023-02-01T13:59:48;3.15;;;1.20;;
3747;SDS011;1889;50.058;8.688;2023-02-01T14:05:11;6.42;;;1.77;;
3747;SDS011;1889;50.058;8.688;2023-02-01T14:21:31;6.33;;;2.50;;
3747;SDS011;1889;50.058;8.688;2023-02-01T14:26:51;6.72;;;1.82;;
3747;SDS011;1889;50.058;8.688;2023-02-01T14:29:25;4.78;;;1.62;;
3747;SDS011;1889;50.058;8.688;2023-02-01T14:42:47;3.95;;;1.45;;
3747;SDS011;1889;50.058;8.688;2023-02-01T14:47:55;4.55;;;1.60;;
3747;SDS011;1889;50.058;8.688;2023-02-01T14:55:48;10.03;;;1.90;;
3747;SDS011;1889;50.058;8.688;2023-02-01T15:01:24;6.80;;;1.47;;
3747;SDS011;1889;50.058;8.688;2023-02-01T15:04:06;4.95;;;1.40;;
3747;SDS011;1889;50.058;8.688;2023-02-01T15:06:42;7.28;;;1.60;;
3747;SDS011;1889;50.058;8.688;2023-02-01T15:09:15;8.85;;;2.25;;
3747;SDS011;1889;50.058;8.688;2023-02-01T15:12:02;4.58;;;1.80;;
3747;SDS011;1889;50.058;8.688;2023-02-01T15:14:47;5.90;;;1.62;;
3747;SDS011;1889;50.058;8.688;2023-02-01T15:17:27;3.87;;;1.72;;
3747;SDS011;1889;50.058;8.688;2023-02-01T15:19:58;5.35;;;1.37;;
3747;SDS011;1889;50.058;8.688;2023-02-01T15:22:30;8.75;;;2.72;;
3747;SDS011;1889;50.058;8.688;2023-02-01T15:25:00;7.75;;;2.37;;
3747;SDS011;1889;50.058;8.688;2023-02-01T15:27:30;3.90;;;1.52;;
3747;SDS011;1889;50.058;8.688;2023-02-01T15:30:07;4.67;;;2.50;;
3747;SDS011;1889;50.058;8.688;2023-02-01T15:32:39;4.40;;;1.85;;
3747;SDS011;1889;50.058;8.688;2023-02-01T15:38:18;7.10;;;1.95;;
3747;SDS011;1889;50.058;8.688;2023-02-01T15:41:08;8.55;;;1.50;;
3747;SDS011;1889;50.058;8.688;2023-02-01T15:43:41;5.47;;;1.87;;
3747;SDS011;1889;50.058;8.688;2023-02-01T15:46:17;4.80;;;1.80;;
3747;SDS011;1889;50.058;8.688;2023-02-01T15:48:49;4.37;;;1.47;;
3747;SDS011;1889;50.058;8.688;2023-02-01T15:51:20;6.05;;;1.60;;
3747;SDS011;1889;50.058;8.688;2023-02-01T15:53:53;6.65;;;1.67;;
3747;SDS011;1889;50.058;8.688;2023-02-01T15:56:28;6.12;;;1.60;;
3747;SDS011;1889;50.058;8.688;2023-02-01T15:59:00;10.70;;;2.70;;
3747;SDS011;1889;50.058;8.688;2023-02-01T16:01:36;7.05;;;2.10;;
3747;SDS011;1889;50.058;8.688;2023-02-01T16:06:52;4.60;;;1.75;;
3747;SDS011;1889;50.058;8.688;2023-02-01T16:09:24;9.80;;;2.72;;
3747;SDS011;1889;50.058;8.688;2023-02-01T16:11:57;4.87;;;1.85;;
3747;SDS011;1889;50.058;8.688;2023-02-01T16:14:28;7.10;;;1.70;;
3747;SDS011;1889;50.058;8.688;2023-02-01T16:16:59;5.08;;;1.37;;
3747;SDS011;1889;50.058;8.688;2023-02-01T16:19:28;5.20;;;1.87;;
3747;SDS011;1889;50.058;8.688;2023-02-01T16:21:58;6.83;;;1.85;;
3747;SDS011;1889;50.058;8.688;2023-02-01T16:24:28;6.22;;;1.32;;
3747;SDS011;1889;50.058;8.688;2023-02-01T16:26:59;3.40;;;1.42;;
3747;SDS011;1889;50.058;8.688;2023-02-01T16:29:28;4.30;;;1.52;;
3747;SDS011;1889;50.058;8.688;2023-02-01T16:31:57;5.40;;;1.32;;
3747;SDS011;1889;50.058;8.688;2023-02-01T16:34:27;7.00;;;1.77;;
3747;SDS011;1889;50.058;8.688;2023-02-01T16:36:56;5.85;;;1.60;;
3747;SDS011;1889;50.058;8.688;2023-02-01T16:39:26;6.83;;;1.60;;
3747;SDS011;1889;50.058;8.688;2023-02-01T16:41:55;1.30;;;0.80;;
3747;SDS011;1889;50.058;8.688;2023-02-01T16:44:25;3.62;;;1.32;;
3747;SDS011;1889;50.058;8.688;2023-02-01T16:46:54;6.28;;;1.72;;
3747;SDS011;1889;50.058;8.688;2023-02-01T16:49:23;4.45;;;1.45;;
3747;SDS011;1889;50.058;8.688;2023-02-01T16:51:56;8.00;;;1.57;;
3747;SDS011;1889;50.058;8.688;2023-02-01T16:54:26;7.25;;;1.42;;
3747;SDS011;1889;50.058;8.688;2023-02-01T16:56:55;8.78;;;1.70;;
3747;SDS011;1889;50.058;8.688;2023-02-01T16:59:24;6.15;;;1.77;;
3747;SDS011;1889;50.058;8.688;2023-02-01T17:01:53;5.50;;;1.82;;
3747;SDS011;1889;50.058;8.688;2023-02-01T17:04:23;5.45;;;1.80;;
3747;SDS011;1889;50.058;8.688;2023-02-01T17:06:52;6.35;;;2.00;;
3747;SDS011;1889;50.058;8.688;2023-02-01T17:09:22;8.65;;;1.80;;
3747;SDS011;1889;50.058;8.688;2023-02-01T17:11:52;5.85;;;2.10;;
3747;SDS011;1889;50.058;8.688;2023-02-01T17:14:21;6.33;;;1.52;;
3747;SDS011;1889;50.058;8.688;2023-02-01T17:16:52;5.05;;;1.72;;
3747;SDS011;1889;50.058;8.688;2023-02-01T17:19:21;7.08;;;2.72;;
3747;SDS011;1889;50.058;8.688;2023-02-01T17:21:54;6.53;;;1.67;;
3747;SDS011;1889;50.058;8.688;2023-02-01T17:24:26;6.95;;;1.90;;
3747;SDS011;1889;50.058;8.688;2023-02-01T17:26:57;11.12;;;4.87;;
3747;SDS011;1889;50.058;8.688;2023-02-01T17:29:27;6.47;;;2.90;;
3747;SDS011;1889;50.058;8.688;2023-02-01T17:31:56;2.27;;;1.22;;
3747;SDS011;1889;50.058;8.688;2023-02-01T17:34:27;6.28;;;1.72;;
3747;SDS011;1889;50.058;8.688;2023-02-01T17:36:57;5.33;;;2.22;;
3747;SDS011;1889;50.058;8.688;2023-02-01T17:39:26;8.00;;;3.40;;
3747;SDS011;1889;50.058;8.688;2023-02-01T17:42:13;5.40;;;1.85;;
3747;SDS011;1889;50.058;8.688;2023-02-01T17:44:42;7.72;;;2.02;;
3747;SDS011;1889;50.058;8.688;2023-02-01T17:47:12;5.33;;;2.00;;
3747;SDS011;1889;50.058;8.688;2023-02-01T17:49:41;4.65;;;2.40;;
3747;SDS011;1889;50.058;8.688;2023-02-01T17:52:13;6.80;;;1.87;;